^^
Station Historical Data
 
Daily Summary for June 24, 2019 Units:  English    Metric   Both
« Previous Day
Next Day »
Daily Weekly Monthly Yearly Custom
  Current: High: Low: Average:
Temperature: 61 °F 65.5 °F 61 °F 64.2 °F
Dew Point: 57.1 °F 65.5 °F 57.1 °F 63 °F
Humidity: 87% 100% 87% 96%
Wind Speed: 1mph 6mph 0mph 0.6mph
Wind Gust: 6mph 14mph - -
WindWest - - WNW
Pressure: 29.54 in 29.57 in 29.51 in -
Precipitation: 0.23 in      
Historical Graphs
 
 
Tabular Data for June 24, 2019
Time Temperature Dew Point Pressure Wind Wind Speed Wind Gust Humidity Rainfall Rate (Hourly) solar Conditions
00:00 65.3 °F 63.2 °F 29.57 in Calm     93% 0 in 0.00 W/m2 RA
00:05 65.3 °F 65.3 °F 29.57 in Calm     100% 0 in 0.00 W/m2 RA
00:10 65.4 °F 65.4 °F 29.57 in Calm     100% 0 in 0.00 W/m2 OVC
00:15 65.4 °F 65.4 °F 29.56 in Calm     100% 0 in 0.00 W/m2 OVC
00:20 65.5 °F 65.5 °F 29.56 in Calm     100% 0 in 0.00 W/m2 OVC
00:25 65.5 °F 65.5 °F 29.56 in Calm     100% 0 in 0.00 W/m2 OVC
00:30 65.4 °F 65.4 °F 29.56 in Calm     100% 0 in 0.00 W/m2 OVC
00:35 65.4 °F 65.4 °F 29.56 in Calm     100% 0 in 0.00 W/m2 OVC
00:40 65.4 °F 65.4 °F 29.56 in Calm     100% 0 in 0.00 W/m2 OVC
00:45 65.5 °F 65.5 °F 29.55 in Calm     100% 0.01 in 0.00 W/m2 RA
00:50 65.5 °F 65.5 °F 29.55 in Calm     100% 0.01 in 0.00 W/m2 RA
00:55 65.5 °F 65.5 °F 29.55 in Calm     100% 0 in 0.00 W/m2 OVC
01:00 65.5 °F 65.5 °F 29.55 in Calm     100% 0 in 0.00 W/m2 OVC
01:05 65.5 °F 65.5 °F 29.55 in Calm     100% 0 in 0.00 W/m2 OVC
01:10 65.5 °F 65.5 °F 29.55 in Calm     100% 0 in 0.00 W/m2 OVC
01:15 65.5 °F 65.5 °F 29.54 in Calm     100% 0 in 0.00 W/m2 OVC
01:20 65.5 °F 65.5 °F 29.54 in Calm     100% 0 in 0.00 W/m2 OVC
01:25 65.5 °F 65.5 °F 29.54 in Calm     100% 0 in 0.00 W/m2 OVC
01:30 65.5 °F 65.5 °F 29.54 in Calm     100% 0 in 0.00 W/m2 OVC
01:35 65.5 °F 65.5 °F 29.54 in Calm     100% 0 in 0.00 W/m2 OVC
01:40 65.5 °F 65.5 °F 29.54 in Calm     100% 0 in 0.00 W/m2 OVC
01:45 65.5 °F 65.5 °F 29.54 in Calm     100% 0 in 0.00 W/m2 OVC
01:50 65.5 °F 65.5 °F 29.53 in Calm     100% 0 in 0.00 W/m2 OVC
01:55 65.5 °F 65.5 °F 29.52 in Calm     100% 0 in 0.00 W/m2 OVC
02:00 65.5 °F 65.5 °F 29.52 in Calm     100% 0 in 0.00 W/m2 OVC
02:05 65.5 °F 65.5 °F 29.52 in Calm     100% 0 in 0.00 W/m2 OVC
02:10 65.4 °F 65.4 °F 29.53 in Calm     100% 0 in 0.00 W/m2 OVC
02:15 65.3 °F 65.4 °F 29.52 in Calm     100% 0 in 0.00 W/m2 OVC
02:20 65.3 °F 65.3 °F 29.52 in Calm     100% 0 in 0.00 W/m2 OVC
02:25 65.3 °F 65.3 °F 29.53 in Calm     100% 0 in 0.00 W/m2 OVC
02:30 65.2 °F 65.2 °F 29.53 in Calm     100% 0 in 0.00 W/m2 OVC
02:35 65.3 °F 65.3 °F 29.53 in Calm     100% 0 in 0.00 W/m2 OVC
02:40 65.3 °F 65.3 °F 29.52 in Calm     100% 0 in 0.00 W/m2 OVC
02:45 65.3 °F 65.3 °F 29.52 in Calm     100% 0 in 0.00 W/m2 OVC
02:50 65.3 °F 65.3 °F 29.52 in Calm     100% 0 in 0.00 W/m2 OVC
02:55 65.3 °F 65.3 °F 29.52 in Calm     100% 0 in 0.00 W/m2 OVC
03:00 65.4 °F 65.4 °F 29.51 in Calm     100% 0 in 0.00 W/m2 OVC
03:05 65.4 °F 63.3 °F 29.51 in Calm     93% 0 in 0.00 W/m2 OVC
03:10 65.4 °F 63.3 °F 29.51 in Calm     93% 0.01 in 0.00 W/m2 RA
03:15 65.4 °F 63.3 °F 29.51 in Calm     93% 0 in 0.00 W/m2 RA
03:20 65.4 °F 63.3 °F 29.52 in Calm   1 mph 93% 0.04 in 0.00 W/m2 RA
03:25 65.4 °F 63.3 °F 29.51 in Calm     93% 0.05 in 0.00 W/m2 RA
03:30 65.3 °F 63.2 °F 29.51 in Calm     93% 0.1 in 0.00 W/m2 RA
03:35 65.2 °F 63.2 °F 29.51 in Calm     93% 0.02 in 0.00 W/m2 RA
03:40 65.2 °F 63.1 °F 29.51 in Calm     93% 0.02 in 0.00 W/m2 RA
03:45 65.2 °F 63.1 °F 29.51 in Calm     93% 0.01 in 0.00 W/m2 RA
03:50 65.2 °F 63.1 °F 29.51 in Calm     93% 0.04 in 0.00 W/m2 RA
03:55 65.1 °F 63 °F 29.51 in West 2 mph 8 mph 93% 0 in 0.00 W/m2 RA
04:00 64.9 °F 62.8 °F 29.51 in WNW 3 mph 8 mph 93% 0.01 in 0.00 W/m2 RA
04:05 64.7 °F 62.6 °F 29.52 in WNW 1 mph 10 mph 93% 0 in 0.00 W/m2 RA
04:10 64.4 °F 62.3 °F 29.52 in WNW 1 mph 5 mph 93% 0 in 0.00 W/m2 OVC
04:15 64.2 °F 62.1 °F 29.52 in NW 5 mph 9 mph 93% 0 in 0.00 W/m2 OVC
04:20 64 °F 61.9 °F 29.52 in NW 1 mph 7 mph 93% 0 in 0.00 W/m2 OVC
04:25 63.8 °F 61.7 °F 29.52 in NW 1 mph 8 mph 93% 0 in 0.00 W/m2 OVC
04:30 63.5 °F 61.4 °F 29.52 in WNW 1 mph 10 mph 93% 0 in 0.00 W/m2 OVC
04:35 63.4 °F 61.3 °F 29.53 in WNW 1 mph 10 mph 93% 0 in 0.00 W/m2 OVC
04:40 63.2 °F 61.1 °F 29.52 in WNW 2 mph 7 mph 93% 0 in 0.00 W/m2 OVC
04:45 63.1 °F 61.1 °F 29.53 in WNW 3 mph 7 mph 93% 0 in 0.00 W/m2 OVC
04:50 63 °F 61 °F 29.53 in WNW 2 mph 8 mph 93% 0 in 0.00 W/m2 OVC
04:55 63 °F 60.9 °F 29.54 in WNW 6 mph 13 mph 93% 0 in 0.00 W/m2 OVC
05:00 62.9 °F 60.8 °F 29.54 in WNW 1 mph 5 mph 93% 0 in 0.00 W/m2 OVC
05:05 62.7 °F 60.6 °F 29.54 in WNW 2 mph 14 mph 93% 0 in 0.00 W/m2 OVC
05:10 62.5 °F 60.4 °F 29.54 in WNW 1 mph 7 mph 93% 0 in 0.00 W/m2 OVC
05:15 62.2 °F 60.2 °F 29.54 in NW 1 mph 9 mph 93% 0 in 0.00 W/m2 OVC
05:20 62.1 °F 60 °F 29.54 in WNW 1 mph 5 mph 93% 0 in 0.00 W/m2 OVC
05:25 61.9 °F 59.9 °F 29.53 in WNW 1 mph 3 mph 93% 0 in 0.00 W/m2 OVC
05:30 61.7 °F 59.7 °F 29.53 in WNW 1 mph 4 mph 93% 0 in 0.00 W/m2 OVC
05:35 61.6 °F 59.6 °F 29.53 in Calm   2 mph 93% 0 in 0.00 W/m2 OVC
05:40 61.5 °F 59.5 °F 29.53 in WNW 1 mph 7 mph 93% 0 in 7.00 W/m2 OVC
05:45 61.5 °F 59.4 °F 29.53 in WNW 1 mph 5 mph 93% 0 in 11.00 W/m2 OVC
05:50 61.4 °F 59.4 °F 29.53 in Calm   5 mph 93% 0 in 14.00 W/m2 OVC
05:55 61.4 °F 59.4 °F 29.54 in Calm     93% 0 in 16.00 W/m2 OVC
06:00 61.3 °F 59.3 °F 29.54 in Calm   5 mph 93% 0 in 19.00 W/m2 OVC
06:05 61.2 °F 57.3 °F 29.54 in WNW 2 mph 8 mph 87% 0 in 18.00 W/m2 OVC
06:10 61.1 °F 57.2 °F 29.54 in WNW 2 mph 9 mph 87% 0 in 35.00 W/m2 OVC
06:15 61 °F 57.1 °F 29.54 in NW 1 mph 8 mph 87% 0 in 51.00 W/m2 OVC
06:20 61 °F 57.1 °F 29.54 in Calm   7 mph 87% 0 in 62.00 W/m2 OVC
06:25 61 °F 57.1 °F 29.54 in WNW 1 mph 7 mph 87% 0 in 65.00 W/m2 OVC
06:30 61 °F 57.1 °F 29.54 in West 1 mph 6 mph 87% 0 in 81.00 W/m2 OVC
Zumbrota Weather